East Spencer, North Carolina
Current Conditions -  °F | °C
As of 10:15 AM on Thursday 30 Oct 2014 (Local Time) from KRUQ Reporting Station
Clear Clear  
Wind Chill: 55°   Ceiling: Unl
Heat Index: 55°   Visibility: 10mi
Dew Point: 42°   Wind: 6mph
Humidity: 61%   Direction: 10°N
Pressure: 30.08"   Gusts: NA
Location:  35.68°N, 80.43°W
Report Text: KRUQ 301415Z AUTO 01005KT 10SM CLR 13/05 A3008 RMK AO2 T01270053
Loading
Personal Weather Stations






























Interactive Weather Map
Tropical Storm Tracking
New forecast layout! Learn more

10-Day Weather Forecast

Advertisements
Track Severe Weather on mobile